sensor_id;sensor_type;location;lat;lon;timestamp;pressure;altitude;pressure_sealevel;temperature;humidity
8398;BME280;4236;54.504;9.588;2023-05-01T00:01:04;102035.94;;;4.86;100.00
8398;BME280;4236;54.504;9.588;2023-05-01T00:03:31;102029.22;;;4.82;100.00
8398;BME280;4236;54.504;9.588;2023-05-01T00:06:00;102026.13;;;4.77;100.00
8398;BME280;4236;54.504;9.588;2023-05-01T00:08:30;102019.31;;;4.75;100.00
8398;BME280;4236;54.504;9.588;2023-05-01T00:11:01;102016.06;;;4.71;100.00
8398;BME280;4236;54.504;9.588;2023-05-01T00:13:29;102006.47;;;4.70;100.00
8398;BME280;4236;54.504;9.588;2023-05-01T00:15:57;102015.47;;;4.68;100.00
8398;BME280;4236;54.504;9.588;2023-05-01T00:18:24;102010.44;;;4.65;100.00
8398;BME280;4236;54.504;9.588;2023-05-01T00:20:52;102004.56;;;4.61;100.00
8398;BME280;4236;54.504;9.588;2023-05-01T00:23:20;102002.88;;;4.60;100.00
8398;BME280;4236;54.504;9.588;2023-05-01T00:25:49;102001.50;;;4.56;100.00
8398;BME280;4236;54.504;9.588;2023-05-01T00:28:17;101992.84;;;4.54;100.00
8398;BME280;4236;54.504;9.588;2023-05-01T00:30:44;101991.28;;;4.52;100.00
8398;BME280;4236;54.504;9.588;2023-05-01T00:33:12;101984.34;;;4.51;100.00
8398;BME280;4236;54.504;9.588;2023-05-01T00:35:42;101990.59;;;4.50;100.00
8398;BME280;4236;54.504;9.588;2023-05-01T00:38:10;101982.78;;;4.48;100.00
8398;BME280;4236;54.504;9.588;2023-05-01T00:40:41;101974.16;;;4.46;100.00
8398;BME280;4236;54.504;9.588;2023-05-01T00:43:10;101969.81;;;4.45;100.00
8398;BME280;4236;54.504;9.588;2023-05-01T00:45:42;101980.53;;;4.43;100.00
8398;BME280;4236;54.504;9.588;2023-05-01T00:48:10;101972.84;;;4.40;100.00
8398;BME280;4236;54.504;9.588;2023-05-01T00:50:37;101968.41;;;4.41;100.00
8398;BME280;4236;54.504;9.588;2023-05-01T00:53:05;101966.63;;;4.41;100.00
8398;BME280;4236;54.504;9.588;2023-05-01T00:55:33;101962.28;;;4.40;100.00
8398;BME280;4236;54.504;9.588;2023-05-01T00:58:01;101966.63;;;4.41;100.00
8398;BME280;4236;54.504;9.588;2023-05-01T01:00:31;101957.72;;;4.42;100.00
8398;BME280;4236;54.504;9.588;2023-05-01T01:02:59;101961.19;;;4.43;100.00
8398;BME280;4236;54.504;9.588;2023-05-01T01:05:29;101953.41;;;4.41;100.00
8398;BME280;4236;54.504;9.588;2023-05-01T01:08:04;101959.66;;;4.40;100.00
8398;BME280;4236;54.504;9.588;2023-05-01T01:10:42;101952.81;;;4.38;100.00
8398;BME280;4236;54.504;9.588;2023-05-01T01:13:17;101952.38;;;4.33;100.00
8398;BME280;4236;54.504;9.588;2023-05-01T01:15:52;101947.59;;;4.27;100.00
8398;BME280;4236;54.504;9.588;2023-05-01T01:18:29;101954.94;;;4.23;100.00
8398;BME280;4236;54.504;9.588;2023-05-01T01:21:05;101952.66;;;4.19;100.00
8398;BME280;4236;54.504;9.588;2023-05-01T01:23:52;101949.41;;;4.15;100.00
8398;BME280;4236;54.504;9.588;2023-05-01T01:29:39;101937.97;;;4.05;100.00
8398;BME280;4236;54.504;9.588;2023-05-01T01:32:33;101946.22;;;4.01;100.00
8398;BME280;4236;54.504;9.588;2023-05-01T01:35:12;101935.38;;;3.94;100.00
8398;BME280;4236;54.504;9.588;2023-05-01T01:37:47;101938.25;;;3.91;100.00
8398;BME280;4236;54.504;9.588;2023-05-01T01:40:18;101937.50;;;3.89;100.00
8398;BME280;4236;54.504;9.588;2023-05-01T01:42:52;101929.00;;;3.85;100.00
8398;BME280;4236;54.504;9.588;2023-05-01T01:45:23;101933.56;;;3.83;100.00
8398;BME280;4236;54.504;9.588;2023-05-01T01:47:53;101924.97;;;3.81;100.00
8398;BME280;4236;54.504;9.588;2023-05-01T01:50:25;101923.28;;;3.80;100.00
8398;BME280;4236;54.504;9.588;2023-05-01T01:52:57;101925.19;;;3.78;100.00
8398;BME280;4236;54.504;9.588;2023-05-01T01:55:28;101912.00;;;3.78;100.00
8398;BME280;4236;54.504;9.588;2023-05-01T01:57:58;101916.56;;;3.76;100.00
8398;BME280;4236;54.504;9.588;2023-05-01T02:00:27;101915.16;;;3.72;100.00
8398;BME280;4236;54.504;9.588;2023-05-01T02:02:58;101921.50;;;3.70;100.00
8398;BME280;4236;54.504;9.588;2023-05-01T02:05:30;101907.59;;;3.68;100.00
8398;BME280;4236;54.504;9.588;2023-05-01T02:07:59;101913.00;;;3.66;100.00
8398;BME280;4236;54.504;9.588;2023-05-01T02:10:29;101907.84;;;3.65;100.00
8398;BME280;4236;54.504;9.588;2023-05-01T02:12:58;101902.09;;;3.60;100.00
8398;BME280;4236;54.504;9.588;2023-05-01T02:15:28;101899.47;;;3.60;100.00
8398;BME280;4236;54.504;9.588;2023-05-01T02:17:57;101896.13;;;3.58;100.00
8398;BME280;4236;54.504;9.588;2023-05-01T02:20:27;101896.38;;;3.55;100.00
8398;BME280;4236;54.504;9.588;2023-05-01T02:22:56;101891.34;;;3.52;100.00
8398;BME280;4236;54.504;9.588;2023-05-01T02:25:26;101885.31;;;3.50;100.00
8398;BME280;4236;54.504;9.588;2023-05-01T02:27:59;101886.41;;;3.47;100.00
8398;BME280;4236;54.504;9.588;2023-05-01T02:30:28;101883.91;;;3.46;100.00
8398;BME280;4236;54.504;9.588;2023-05-01T02:32:55;101883.06;;;3.45;100.00
8398;BME280;4236;54.504;9.588;2023-05-01T02:35:23;101876.13;;;3.44;100.00
8398;BME280;4236;54.504;9.588;2023-05-01T02:37:53;101872.63;;;3.44;100.00
8398;BME280;4236;54.504;9.588;2023-05-01T02:40:20;101868.34;;;3.43;100.00
8398;BME280;4236;54.504;9.588;2023-05-01T02:42:50;101868.44;;;3.41;100.00
8398;BME280;4236;54.504;9.588;2023-05-01T02:45:21;101864.84;;;3.42;100.00
8398;BME280;4236;54.504;9.588;2023-05-01T02:47:52;101860.28;;;3.44;100.00
8398;BME280;4236;54.504;9.588;2023-05-01T02:50:21;101860.44;;;3.43;100.00
8398;BME280;4236;54.504;9.588;2023-05-01T02:52:50;101849.03;;;3.42;100.00
8398;BME280;4236;54.504;9.588;2023-05-01T02:55:19;101845.69;;;3.40;100.00
8398;BME280;4236;54.504;9.588;2023-05-01T02:57:49;101844.00;;;3.39;100.00
8398;BME280;4236;54.504;9.588;2023-05-01T03:00:17;101847.75;;;3.37;100.00
8398;BME280;4236;54.504;9.588;2023-05-01T03:02:46;101826.91;;;3.33;100.00
8398;BME280;4236;54.504;9.588;2023-05-01T03:05:14;101843.91;;;3.29;100.00
8398;BME280;4236;54.504;9.588;2023-05-01T03:07:41;101838.03;;;3.26;100.00
8398;BME280;4236;54.504;9.588;2023-05-01T03:10:10;101826.78;;;3.24;100.00
8398;BME280;4236;54.504;9.588;2023-05-01T03:12:39;101823.44;;;3.22;100.00
8398;BME280;4236;54.504;9.588;2023-05-01T03:15:08;101820.91;;;3.20;100.00
8398;BME280;4236;54.504;9.588;2023-05-01T03:17:35;101817.56;;;3.18;100.00
8398;BME280;4236;54.504;9.588;2023-05-01T03:20:05;101811.59;;;3.16;100.00
8398;BME280;4236;54.504;9.588;2023-05-01T03:22:33;101815.19;;;3.15;100.00
8398;BME280;4236;54.504;9.588;2023-05-01T03:25:01;101815.19;;;3.15;100.00
8398;BME280;4236;54.504;9.588;2023-05-01T03:27:29;101809.22;;;3.13;100.00
8398;BME280;4236;54.504;9.588;2023-05-01T03:29:58;101795.06;;;3.14;100.00
8398;BME280;4236;54.504;9.588;2023-05-01T03:32:26;101795.91;;;3.15;100.00
8398;BME280;4236;54.504;9.588;2023-05-01T03:34:54;101796.84;;;3.14;100.00
8398;BME280;4236;54.504;9.588;2023-05-01T03:37:22;101801.31;;;3.13;100.00
8398;BME280;4236;54.504;9.588;2023-05-01T03:39:51;101792.56;;;3.13;100.00
8398;BME280;4236;54.504;9.588;2023-05-01T03:42:19;101797.81;;;3.13;100.00
8398;BME280;4236;54.504;9.588;2023-05-01T03:44:47;101788.84;;;3.15;100.00
8398;BME280;4236;54.504;9.588;2023-05-01T03:47:16;101784.41;;;3.16;100.00
8398;BME280;4236;54.504;9.588;2023-05-01T03:49:44;101792.06;;;3.19;100.00
8398;BME280;4236;54.504;9.588;2023-05-01T03:52:11;101784.75;;;3.22;100.00
8398;BME280;4236;54.504;9.588;2023-05-01T03:54:40;101782.44;;;3.29;100.00
8398;BME280;4236;54.504;9.588;2023-05-01T03:57:07;101780.28;;;3.34;100.00
8398;BME280;4236;54.504;9.588;2023-05-01T03:59:35;101781.31;;;3.43;100.00
8398;BME280;4236;54.504;9.588;2023-05-01T04:02:02;101782.47;;;3.50;100.00
8398;BME280;4236;54.504;9.588;2023-05-01T04:04:32;101774.78;;;3.58;100.00
8398;BME280;4236;54.504;9.588;2023-05-01T04:07:00;101775.69;;;3.68;100.00
8398;BME280;4236;54.504;9.588;2023-05-01T04:09:28;101772.28;;;3.77;100.00
8398;BME280;4236;54.504;9.588;2023-05-01T04:11:56;101780.28;;;3.86;100.00
8398;BME280;4236;54.504;9.588;2023-05-01T04:14:23;101783.69;;;3.98;100.00
8398;BME280;4236;54.504;9.588;2023-05-01T04:16:51;101771.72;;;4.15;100.00
8398;BME280;4236;54.504;9.588;2023-05-01T04:19:19;101774.88;;;4.29;100.00
8398;BME280;4236;54.504;9.588;2023-05-01T04:21:48;101770.06;;;4.44;100.00
8398;BME280;4236;54.504;9.588;2023-05-01T04:24:15;101772.09;;;4.61;100.00
8398;BME280;4236;54.504;9.588;2023-05-01T04:26:43;101760.19;;;4.76;100.00
8398;BME280;4236;54.504;9.588;2023-05-01T04:29:10;101760.53;;;4.92;100.00
8398;BME280;4236;54.504;9.588;2023-05-01T04:31:38;101769.06;;;5.25;100.00
8398;BME280;4236;54.504;9.588;2023-05-01T04:34:07;101764.06;;;5.60;100.00
8398;BME280;4236;54.504;9.588;2023-05-01T04:36:34;101755.31;;;5.88;100.00
8398;BME280;4236;54.504;9.588;2023-05-01T04:39:03;101756.31;;;6.34;100.00
8398;BME280;4236;54.504;9.588;2023-05-01T04:41:31;101758.22;;;6.78;100.00
8398;BME280;4236;54.504;9.588;2023-05-01T04:43:59;101745.25;;;7.02;100.00
8398;BME280;4236;54.504;9.588;2023-05-01T04:46:26;101745.06;;;7.31;100.00
8398;BME280;4236;54.504;9.588;2023-05-01T04:48:54;101748.63;;;7.57;100.00
8398;BME280;4236;54.504;9.588;2023-05-01T04:51:22;101747.59;;;7.94;100.00
8398;BME280;4236;54.504;9.588;2023-05-01T04:53:49;101739.47;;;8.21;100.00
8398;BME280;4236;54.504;9.588;2023-05-01T04:56:18;101736.13;;;8.78;100.00
8398;BME280;4236;54.504;9.588;2023-05-01T04:58:46;101733.63;;;9.51;100.00
8398;BME280;4236;54.504;9.588;2023-05-01T05:01:14;101739.09;;;9.98;100.00
8398;BME280;4236;54.504;9.588;2023-05-01T05:03:41;101732.97;;;10.61;100.00
8398;BME280;4236;54.504;9.588;2023-05-01T05:06:12;101734.91;;;11.36;100.00
8398;BME280;4236;54.504;9.588;2023-05-01T05:08:40;101737.56;;;12.19;100.00
8398;BME280;4236;54.504;9.588;2023-05-01T05:11:07;101724.56;;;12.74;100.00
8398;BME280;4236;54.504;9.588;2023-05-01T05:13:37;101723.47;;;13.05;100.00
8398;BME280;4236;54.504;9.588;2023-05-01T05:16:05;101718.50;;;13.59;100.00
8398;BME280;4236;54.504;9.588;2023-05-01T05:18:33;101726.28;;;14.03;90.63
8398;BME280;4236;54.504;9.588;2023-05-01T05:21:02;101726.00;;;14.53;83.51
8398;BME280;4236;54.504;9.588;2023-05-01T05:23:30;101724.59;;;15.05;82.69
8398;BME280;4236;54.504;9.588;2023-05-01T05:25:58;101726.41;;;15.65;73.06
8398;BME280;4236;54.504;9.588;2023-05-01T05:28:27;101725.34;;;16.05;69.21
8398;BME280;4236;54.504;9.588;2023-05-01T05:30:56;101720.69;;;16.65;70.57
8398;BME280;4236;54.504;9.588;2023-05-01T05:33:23;101724.59;;;16.75;64.75
8398;BME280;4236;54.504;9.588;2023-05-01T05:35:51;101725.94;;;16.97;59.43
8398;BME280;4236;54.504;9.588;2023-05-01T05:38:19;101718.53;;;17.24;60.59
8398;BME280;4236;54.504;9.588;2023-05-01T05:40:47;101723.75;;;17.50;62.55
8398;BME280;4236;54.504;9.588;2023-05-01T05:43:14;101716.47;;;17.57;60.24
8398;BME280;4236;54.504;9.588;2023-05-01T05:45:42;101711.56;;;17.73;57.93
8398;BME280;4236;54.504;9.588;2023-05-01T05:48:11;101716.53;;;17.76;58.81
8398;BME280;4236;54.504;9.588;2023-05-01T05:50:39;101711.13;;;17.76;54.87
8398;BME280;4236;54.504;9.588;2023-05-01T05:53:06;101710.31;;;17.75;57.36
8398;BME280;4236;54.504;9.588;2023-05-01T05:55:35;101705.91;;;17.56;53.63
8398;BME280;4236;54.504;9.588;2023-05-01T05:58:02;101712.47;;;17.66;53.98
8398;BME280;4236;54.504;9.588;2023-05-01T06:00:30;101704.09;;;17.75;53.93
8398;BME280;4236;54.504;9.588;2023-05-01T06:02:58;101705.19;;;17.92;52.63
8398;BME280;4236;54.504;9.588;2023-05-01T06:05:27;101700.16;;;17.95;53.40
8398;BME280;4236;54.504;9.588;2023-05-01T06:07:55;101696.47;;;18.14;51.03
8398;BME280;4236;54.504;9.588;2023-05-01T06:10:23;101691.16;;;18.44;52.02
8398;BME280;4236;54.504;9.588;2023-05-01T06:12:50;101690.72;;;18.65;52.06
8398;BME280;4236;54.504;9.588;2023-05-01T06:15:38;101683.22;;;18.67;48.77
8398;BME280;4236;54.504;9.588;2023-05-01T06:18:06;101681.63;;;18.23;48.19
8398;BME280;4236;54.504;9.588;2023-05-01T06:20:36;101682.28;;;18.01;50.91
8398;BME280;4236;54.504;9.588;2023-05-01T06:23:04;101677.78;;;17.70;49.34
8398;BME280;4236;54.504;9.588;2023-05-01T06:25:33;101686.38;;;17.29;49.21
8398;BME280;4236;54.504;9.588;2023-05-01T06:28:01;101689.44;;;17.33;51.20
8398;BME280;4236;54.504;9.588;2023-05-01T06:30:29;101683.59;;;17.11;51.06
8398;BME280;4236;54.504;9.588;2023-05-01T06:32:57;101689.69;;;17.25;49.74
8398;BME280;4236;54.504;9.588;2023-05-01T06:35:24;101681.91;;;17.10;49.27
8398;BME280;4236;54.504;9.588;2023-05-01T06:37:54;101692.41;;;17.25;52.11
8398;BME280;4236;54.504;9.588;2023-05-01T06:40:22;101685.25;;;17.37;48.90
8398;BME280;4236;54.504;9.588;2023-05-01T06:42:49;101677.84;;;17.32;47.92
8398;BME280;4236;54.504;9.588;2023-05-01T06:45:18;101679.72;;;17.32;48.95
8398;BME280;4236;54.504;9.588;2023-05-01T06:47:46;101673.69;;;17.30;47.09
8398;BME280;4236;54.504;9.588;2023-05-01T06:50:14;101673.56;;;17.49;48.65
8398;BME280;4236;54.504;9.588;2023-05-01T06:52:42;101664.41;;;17.50;48.36
8398;BME280;4236;54.504;9.588;2023-05-01T06:55:12;101664.78;;;17.85;49.06
8398;BME280;4236;54.504;9.588;2023-05-01T06:57:40;101666.06;;;17.83;48.15
8398;BME280;4236;54.504;9.588;2023-05-01T07:00:09;101656.38;;;17.93;46.48
8398;BME280;4236;54.504;9.588;2023-05-01T07:02:37;101655.19;;;18.07;46.95
8398;BME280;4236;54.504;9.588;2023-05-01T07:05:06;101652.69;;;18.31;48.29
8398;BME280;4236;54.504;9.588;2023-05-01T07:07:34;101647.03;;;18.98;47.46
8398;BME280;4236;54.504;9.588;2023-05-01T07:10:06;101648.63;;;19.59;46.66
8398;BME280;4236;54.504;9.588;2023-05-01T07:12:35;101643.66;;;20.02;47.75
8398;BME280;4236;54.504;9.588;2023-05-01T07:15:04;101635.31;;;20.04;43.83
8398;BME280;4236;54.504;9.588;2023-05-01T07:17:32;101638.72;;;19.99;40.60
8398;BME280;4236;54.504;9.588;2023-05-01T07:20:00;101635.97;;;20.34;45.29
8398;BME280;4236;54.504;9.588;2023-05-01T07:22:27;101625.03;;;20.17;42.31
8398;BME280;4236;54.504;9.588;2023-05-01T07:24:55;101625.16;;;20.22;42.52
8398;BME280;4236;54.504;9.588;2023-05-01T07:27:23;101619.97;;;20.21;40.63
8398;BME280;4236;54.504;9.588;2023-05-01T07:29:54;101616.41;;;20.43;42.66
8398;BME280;4236;54.504;9.588;2023-05-01T07:32:23;101613.88;;;20.65;43.03
8398;BME280;4236;54.504;9.588;2023-05-01T07:34:50;101616.22;;;20.62;40.10
8398;BME280;4236;54.504;9.588;2023-05-01T07:37:18;101621.97;;;20.37;41.12
8398;BME280;4236;54.504;9.588;2023-05-01T07:39:46;101627.06;;;20.22;40.79
8398;BME280;4236;54.504;9.588;2023-05-01T07:42:14;101622.72;;;19.63;41.47
8398;BME280;4236;54.504;9.588;2023-05-01T07:44:42;101623.56;;;19.10;41.93
8398;BME280;4236;54.504;9.588;2023-05-01T07:47:11;101620.81;;;18.87;42.42
8398;BME280;4236;54.504;9.588;2023-05-01T07:49:40;101607.94;;;18.35;42.38
8398;BME280;4236;54.504;9.588;2023-05-01T07:52:09;101602.81;;;18.15;44.03
8398;BME280;4236;54.504;9.588;2023-05-01T07:54:37;101607.22;;;18.09;44.15
8398;BME280;4236;54.504;9.588;2023-05-01T07:57:08;101604.75;;;18.26;44.97
8398;BME280;4236;54.504;9.588;2023-05-01T07:59:37;101599.13;;;18.28;43.92
8398;BME280;4236;54.504;9.588;2023-05-01T08:02:05;101593.56;;;18.04;44.95
8398;BME280;4236;54.504;9.588;2023-05-01T08:04:35;101598.81;;;18.36;45.21
8398;BME280;4236;54.504;9.588;2023-05-01T08:07:03;101596.13;;;18.54;44.55
8398;BME280;4236;54.504;9.588;2023-05-01T08:09:30;101583.94;;;18.63;43.61
8398;BME280;4236;54.504;9.588;2023-05-01T08:11:59;101589.34;;;18.63;43.63
8398;BME280;4236;54.504;9.588;2023-05-01T08:14:29;101579.41;;;18.75;43.16
8398;BME280;4236;54.504;9.588;2023-05-01T08:16:57;101587.56;;;18.98;43.23
8398;BME280;4236;54.504;9.588;2023-05-01T08:19:25;101571.47;;;19.03;42.41
8398;BME280;4236;54.504;9.588;2023-05-01T08:21:55;101582.25;;;18.92;42.57
8398;BME280;4236;54.504;9.588;2023-05-01T08:24:23;101579.13;;;18.65;41.68
8398;BME280;4236;54.504;9.588;2023-05-01T08:26:51;101568.81;;;18.73;42.67
8398;BME280;4236;54.504;9.588;2023-05-01T08:29:19;101571.53;;;18.85;43.19
8398;BME280;4236;54.504;9.588;2023-05-01T08:31:46;101564.75;;;18.94;41.50
8398;BME280;4236;54.504;9.588;2023-05-01T08:34:15;101562.19;;;18.99;41.47
8398;BME280;4236;54.504;9.588;2023-05-01T08:36:44;101570.19;;;19.06;41.82
8398;BME280;4236;54.504;9.588;2023-05-01T08:39:13;101563.25;;;19.10;41.26
8398;BME280;4236;54.504;9.588;2023-05-01T08:41:44;101561.97;;;19.12;42.58
8398;BME280;4236;54.504;9.588;2023-05-01T08:44:13;101564.03;;;19.40;41.25
8398;BME280;4236;54.504;9.588;2023-05-01T08:46:46;101563.56;;;19.43;39.60
8398;BME280;4236;54.504;9.588;2023-05-01T08:49:15;101562.78;;;19.13;40.54
8398;BME280;4236;54.504;9.588;2023-05-01T08:51:45;101561.28;;;19.28;39.01
8398;BME280;4236;54.504;9.588;2023-05-01T08:54:16;101563.06;;;19.34;38.88
8398;BME280;4236;54.504;9.588;2023-05-01T08:56:46;101550.59;;;19.22;39.39
8398;BME280;4236;54.504;9.588;2023-05-01T08:59:15;101559.88;;;19.26;40.00
8398;BME280;4236;54.504;9.588;2023-05-01T09:01:45;101553.88;;;19.24;39.50
8398;BME280;4236;54.504;9.588;2023-05-01T09:04:13;101556.22;;;19.20;39.35
8398;BME280;4236;54.504;9.588;2023-05-01T09:06:43;101554.59;;;19.19;38.40
8398;BME280;4236;54.504;9.588;2023-05-01T09:09:10;101549.75;;;19.21;38.63
8398;BME280;4236;54.504;9.588;2023-05-01T09:11:43;101546.84;;;19.23;39.02
8398;BME280;4236;54.504;9.588;2023-05-01T09:14:11;101544.13;;;19.23;38.81
8398;BME280;4236;54.504;9.588;2023-05-01T09:16:39;101547.53;;;19.18;39.32
8398;BME280;4236;54.504;9.588;2023-05-01T09:19:07;101544.84;;;19.42;39.96
8398;BME280;4236;54.504;9.588;2023-05-01T09:21:34;101543.91;;;19.71;38.41
8398;BME280;4236;54.504;9.588;2023-05-01T09:24:02;101535.44;;;19.67;37.46
8398;BME280;4236;54.504;9.588;2023-05-01T09:26:30;101537.34;;;19.44;37.44
8398;BME280;4236;54.504;9.588;2023-05-01T09:29:00;101531.09;;;19.55;38.15
8398;BME280;4236;54.504;9.588;2023-05-01T09:31:29;101528.28;;;19.61;37.68
8398;BME280;4236;54.504;9.588;2023-05-01T09:33:59;101520.34;;;19.71;37.81
8398;BME280;4236;54.504;9.588;2023-05-01T09:36:28;101529.69;;;19.64;38.55
8398;BME280;4236;54.504;9.588;2023-05-01T09:38:56;101518.22;;;19.85;37.91
8398;BME280;4236;54.504;9.588;2023-05-01T09:41:26;101520.38;;;19.83;36.83
8398;BME280;4236;54.504;9.588;2023-05-01T09:43:55;101521.38;;;19.94;37.10
8398;BME280;4236;54.504;9.588;2023-05-01T09:46:25;101522.78;;;19.96;35.92
8398;BME280;4236;54.504;9.588;2023-05-01T09:48:54;101516.91;;;19.99;37.16
8398;BME280;4236;54.504;9.588;2023-05-01T09:51:25;101520.34;;;19.71;37.34
8398;BME280;4236;54.504;9.588;2023-05-01T09:53:55;101516.84;;;19.71;37.01
8398;BME280;4236;54.504;9.588;2023-05-01T09:56:25;101510.03;;;19.57;37.47
8398;BME280;4236;54.504;9.588;2023-05-01T09:58:54;101514.63;;;19.68;36.42
8398;BME280;4236;54.504;9.588;2023-05-01T10:01:38;101499.00;;;19.58;37.00
8398;BME280;4236;54.504;9.588;2023-05-01T10:04:07;101491.75;;;19.87;37.08
8398;BME280;4236;54.504;9.588;2023-05-01T10:06:35;101491.69;;;19.99;37.40
8398;BME280;4236;54.504;9.588;2023-05-01T10:09:04;101490.69;;;20.16;37.67
8398;BME280;4236;54.504;9.588;2023-05-01T10:11:46;101479.50;;;20.24;36.42
8398;BME280;4236;54.504;9.588;2023-05-01T10:14:15;101477.28;;;20.21;35.60
8398;BME280;4236;54.504;9.588;2023-05-01T10:16:44;101478.16;;;20.38;36.49
8398;BME280;4236;54.504;9.588;2023-05-01T10:19:13;101481.44;;;20.40;36.66
8398;BME280;4236;54.504;9.588;2023-05-01T10:21:43;101481.34;;;20.35;36.20
8398;BME280;4236;54.504;9.588;2023-05-01T10:24:11;101474.06;;;20.53;36.28
8398;BME280;4236;54.504;9.588;2023-05-01T10:26:40;101478.34;;;20.65;36.14
8398;BME280;4236;54.504;9.588;2023-05-01T10:29:09;101467.50;;;20.65;35.38
8398;BME280;4236;54.504;9.588;2023-05-01T10:31:37;101463.00;;;20.54;35.24
8398;BME280;4236;54.504;9.588;2023-05-01T10:34:09;101461.03;;;20.66;34.83
8398;BME280;4236;54.504;9.588;2023-05-01T10:36:41;101461.34;;;20.70;36.31
8398;BME280;4236;54.504;9.588;2023-05-01T10:39:28;101453.06;;;20.93;34.42
8398;BME280;4236;54.504;9.588;2023-05-01T10:42:03;101451.88;;;21.06;34.84
8398;BME280;4236;54.504;9.588;2023-05-01T10:44:31;101453.06;;;20.93;35.54
8398;BME280;4236;54.504;9.588;2023-05-01T10:50:06;101447.50;;;21.38;36.39
8398;BME280;4236;54.504;9.588;2023-05-01T10:55:40;101439.06;;;21.18;34.42
8398;BME280;4236;54.504;9.588;2023-05-01T10:58:09;101436.38;;;21.01;34.85
8398;BME280;4236;54.504;9.588;2023-05-01T11:00:37;101424.84;;;21.27;35.51
8398;BME280;4236;54.504;9.588;2023-05-01T11:03:35;101429.19;;;21.28;34.59
8398;BME280;4236;54.504;9.588;2023-05-01T11:06:06;101425.72;;;21.33;36.07
8398;BME280;4236;54.504;9.588;2023-05-01T11:08:35;101422.66;;;21.46;33.72
8398;BME280;4236;54.504;9.588;2023-05-01T11:11:46;101418.41;;;21.33;32.95
8398;BME280;4236;54.504;9.588;2023-05-01T11:14:17;101398.38;;;21.56;33.90
8398;BME280;4236;54.504;9.588;2023-05-01T11:16:45;101405.56;;;21.89;34.62
8398;BME280;4236;54.504;9.588;2023-05-01T11:19:48;101406.75;;;21.98;34.11
8398;BME280;4236;54.504;9.588;2023-05-01T11:22:17;101402.69;;;22.00;34.22
8398;BME280;4236;54.504;9.588;2023-05-01T11:24:45;101397.00;;;21.80;33.44
8398;BME280;4236;54.504;9.588;2023-05-01T11:27:14;101395.19;;;21.86;34.40
8398;BME280;4236;54.504;9.588;2023-05-01T11:29:45;101395.50;;;21.89;34.62
8398;BME280;4236;54.504;9.588;2023-05-01T11:32:18;101400.88;;;22.11;33.09
8398;BME280;4236;54.504;9.588;2023-05-01T11:34:48;101395.25;;;22.18;33.54
8398;BME280;4236;54.504;9.588;2023-05-01T11:37:18;101393.34;;;22.18;33.67
8398;BME280;4236;54.504;9.588;2023-05-01T11:39:47;101382.16;;;22.41;33.06
8398;BME280;4236;54.504;9.588;2023-05-01T11:42:19;101384.22;;;22.29;33.01
8398;BME280;4236;54.504;9.588;2023-05-01T11:45:05;101380.69;;;22.02;34.11
8398;BME280;4236;54.504;9.588;2023-05-01T11:47:33;101380.28;;;22.15;33.54
8398;BME280;4236;54.504;9.588;2023-05-01T11:50:01;101373.81;;;22.21;34.51
8398;BME280;4236;54.504;9.588;2023-05-01T11:52:40;101370.75;;;22.13;33.52
8398;BME280;4236;54.504;9.588;2023-05-01T11:55:09;101365.09;;;22.19;33.76
8398;BME280;4236;54.504;9.588;2023-05-01T11:57:47;101372.28;;;22.30;33.37
8398;BME280;4236;54.504;9.588;2023-05-01T12:00:26;101361.28;;;22.52;34.31
8398;BME280;4236;54.504;9.588;2023-05-01T12:02:57;101362.13;;;22.52;34.86
8398;BME280;4236;54.504;9.588;2023-05-01T12:05:29;101365.66;;;22.53;33.28
8398;BME280;4236;54.504;9.588;2023-05-01T12:08:10;101364.78;;;22.42;34.12
8398;BME280;4236;54.504;9.588;2023-05-01T12:10:40;101360.53;;;22.61;34.70
8398;BME280;4236;54.504;9.588;2023-05-01T12:13:09;101352.41;;;22.61;33.27
8398;BME280;4236;54.504;9.588;2023-05-01T12:15:39;101350.31;;;22.37;33.39
8398;BME280;4236;54.504;9.588;2023-05-01T12:18:07;101347.22;;;22.23;33.79
8398;BME280;4236;54.504;9.588;2023-05-01T12:20:37;101348.75;;;22.14;34.53
8398;BME280;4236;54.504;9.588;2023-05-01T12:23:06;101337.41;;;21.69;33.26
8398;BME280;4236;54.504;9.588;2023-05-01T12:25:37;101348.34;;;21.74;35.01
8398;BME280;4236;54.504;9.588;2023-05-01T12:28:09;101339.22;;;21.85;34.05
8398;BME280;4236;54.504;9.588;2023-05-01T12:30:37;101333.25;;;21.83;33.64
8398;BME280;4236;54.504;9.588;2023-05-01T12:33:11;101330.75;;;22.03;34.26
8398;BME280;4236;54.504;9.588;2023-05-01T12:35:40;101337.47;;;22.27;34.36
8398;BME280;4236;54.504;9.588;2023-05-01T12:38:12;101333.63;;;22.23;33.46
8398;BME280;4236;54.504;9.588;2023-05-01T12:40:50;101334.69;;;22.22;33.68
8398;BME280;4236;54.504;9.588;2023-05-01T12:43:20;101329.72;;;22.09;34.60
8398;BME280;4236;54.504;9.588;2023-05-01T12:45:51;101335.00;;;22.26;33.77
8398;BME280;4236;54.504;9.588;2023-05-01T12:48:19;101330.47;;;22.36;34.38
8398;BME280;4236;54.504;9.588;2023-05-01T12:50:47;101329.47;;;22.47;34.20
8398;BME280;4236;54.504;9.588;2023-05-01T12:53:20;101322.28;;;22.31;34.70
8398;BME280;4236;54.504;9.588;2023-05-01T12:55:51;101316.56;;;22.28;33.52
8398;BME280;4236;54.504;9.588;2023-05-01T12:58:19;101319.16;;;22.13;33.02
8398;BME280;4236;54.504;9.588;2023-05-01T13:00:49;101311.59;;;21.66;34.26
8398;BME280;4236;54.504;9.588;2023-05-01T13:03:22;101317.69;;;21.78;35.07
8398;BME280;4236;54.504;9.588;2023-05-01T13:05:52;101302.38;;;21.89;34.41
8398;BME280;4236;54.504;9.588;2023-05-01T13:08:27;101306.44;;;22.18;34.50
8398;BME280;4236;54.504;9.588;2023-05-01T13:10:57;101304.94;;;22.37;34.08
8398;BME280;4236;54.504;9.588;2023-05-01T13:13:27;101303.22;;;22.26;34.30
8398;BME280;4236;54.504;9.588;2023-05-01T13:16:06;101290.47;;;21.95;33.37
8398;BME280;4236;54.504;9.588;2023-05-01T13:18:42;101298.84;;;21.88;34.66
8398;BME280;4236;54.504;9.588;2023-05-01T13:21:11;101294.38;;;22.04;35.26
8398;BME280;4236;54.504;9.588;2023-05-01T13:23:40;101303.81;;;22.01;36.17
8398;BME280;4236;54.504;9.588;2023-05-01T13:26:09;101297.13;;;21.82;35.46
8398;BME280;4236;54.504;9.588;2023-05-01T13:28:42;101292.69;;;21.98;35.67
8398;BME280;4236;54.504;9.588;2023-05-01T13:31:12;101296.69;;;21.69;36.67
8398;BME280;4236;54.504;9.588;2023-05-01T13:33:40;101296.44;;;21.43;37.22